Villa Alemana, Chile
Current Conditions -  °F | °C
As of 9:00 AM on Saturday 25 Oct 2014 (Local Time) from SCVM Reporting Station
Haze Haze  
Wind Chill: 55°   Ceiling: Unl
Heat Index: 55°   Visibility: 2.1mi
Dew Point: 52°   Wind: 5mph
Humidity: 88%   Direction: 280°W
Pressure: 29.88"   Gusts: NA
Location:  33.04°S, 71.36°W
Report Text: SCVM 251300Z 28004KT 3500 BR SCT012 13/11 Q1012
Loading
Personal Weather Stations






























Interactive Weather Map New forecast layout! Learn more

10-Day Weather Forecast

Advertisements
Track Severe Weather on mobile